createdAt,value
2019-01-20T00:02:42.706Z,-7.60
2019-01-20T00:05:30.814Z,-7.60
2019-01-20T00:08:18.944Z,-7.60
2019-01-20T00:11:07.057Z,-7.70
2019-01-20T00:13:55.169Z,-7.70
2019-01-20T00:16:43.291Z,-7.60
2019-01-20T00:19:31.398Z,-7.70
2019-01-20T00:22:19.518Z,-7.70
2019-01-20T00:25:08.121Z,-7.80
2019-01-20T00:27:56.346Z,-7.80
2019-01-20T00:30:44.495Z,-8.00
2019-01-20T00:33:32.639Z,-8.00
2019-01-20T00:36:20.790Z,-8.00
2019-01-20T00:39:09.110Z,-8.10
2019-01-20T00:41:57.230Z,-8.00
2019-01-20T00:44:36.342Z,-8.10
2019-01-20T00:47:24.478Z,-8.00
2019-01-20T00:50:13.077Z,-8.00
2019-01-20T00:53:01.211Z,-8.00
2019-01-20T00:55:49.323Z,-8.20
2019-01-20T00:58:37.662Z,-8.10
2019-01-20T01:01:25.996Z,-8.00
2019-01-20T01:04:14.113Z,-8.10
2019-01-20T01:07:02.399Z,-8.10
2019-01-20T01:09:50.515Z,-8.10
2019-01-20T01:15:34.068Z,-8.10
2019-01-20T01:18:22.517Z,-8.20
2019-01-20T01:21:10.654Z,-8.00
2019-01-20T01:23:59.595Z,-8.10
2019-01-20T01:26:47.983Z,-8.00
2019-01-20T01:29:36.147Z,-8.00
2019-01-20T01:32:24.315Z,-8.00
2019-01-20T01:35:12.570Z,-8.00
2019-01-20T01:38:00.723Z,-7.90
2019-01-20T01:40:48.844Z,-8.10
2019-01-20T01:43:27.667Z,-8.00
2019-01-20T01:46:15.954Z,-8.10
2019-01-20T01:49:04.086Z,-8.10
2019-01-20T01:51:52.198Z,-8.10
2019-01-20T01:54:40.443Z,-8.10
2019-01-20T01:57:29.487Z,-8.20
2019-01-20T02:00:19.288Z,-8.20
2019-01-20T02:03:07.438Z,-8.20
2019-01-20T02:05:55.546Z,-8.40
2019-01-20T02:08:43.680Z,-8.30
2019-01-20T02:11:31.790Z,-8.40
2019-01-20T02:14:19.910Z,-8.30
2019-01-20T02:17:08.032Z,-8.30
2019-01-20T02:19:56.154Z,-8.40
2019-01-20T02:22:44.283Z,-8.30
2019-01-20T02:25:32.414Z,-8.40
2019-01-20T02:28:20.550Z,-8.30
2019-01-20T02:31:08.675Z,-8.40
2019-01-20T02:33:56.734Z,-8.40
2019-01-20T02:36:44.842Z,-8.40
2019-01-20T02:39:33.471Z,-8.40
2019-01-20T02:42:21.581Z,-8.40
2019-01-20T02:45:00.439Z,-8.40
2019-01-20T02:47:48.545Z,-8.40
2019-01-20T02:50:36.695Z,-8.40
2019-01-20T02:53:24.828Z,-8.60
2019-01-20T02:56:12.960Z,-8.70
2019-01-20T02:59:01.067Z,-8.60
2019-01-20T03:01:49.207Z,-8.60
2019-01-20T03:04:37.498Z,-8.60
2019-01-20T03:07:25.628Z,-8.60
2019-01-20T03:10:13.784Z,-8.70
2019-01-20T03:13:01.857Z,-8.70
2019-01-20T03:15:49.973Z,-8.90
2019-01-20T03:18:38.185Z,-8.80
2019-01-20T03:21:26.385Z,-9.00
2019-01-20T03:24:14.511Z,-8.90
2019-01-20T03:27:02.634Z,-8.90
2019-01-20T03:29:50.997Z,-8.90
2019-01-20T03:32:39.056Z,-8.90
2019-01-20T03:35:27.195Z,-8.90
2019-01-20T03:41:02.916Z,-8.90
2019-01-20T03:43:44.042Z,-8.90
2019-01-20T03:46:22.566Z,-8.90
2019-01-20T03:49:10.718Z,-8.90
2019-01-20T03:51:58.803Z,-8.90
2019-01-20T03:54:46.920Z,-8.90
2019-01-20T03:57:34.963Z,-9.70
2019-01-20T04:00:23.930Z,-8.90
2019-01-20T04:03:12.456Z,-8.90
2019-01-20T04:06:00.606Z,-8.90
2019-01-20T04:08:48.724Z,-8.90
2019-01-20T04:11:36.847Z,-8.90
2019-01-20T04:14:24.977Z,-8.90
2019-01-20T04:17:13.017Z,-9.00
2019-01-20T04:23:09.978Z,-9.00
2019-01-20T04:25:58.107Z,-9.10
2019-01-20T04:28:46.486Z,-9.10
2019-01-20T04:31:34.620Z,-9.10
2019-01-20T04:34:22.760Z,-9.10
2019-01-20T04:37:11.191Z,-9.10
2019-01-20T04:39:59.558Z,-9.30
2019-01-20T04:42:47.709Z,-9.30
2019-01-20T04:45:35.824Z,-9.20
2019-01-20T04:48:23.983Z,-9.20
2019-01-20T04:51:12.119Z,-9.40
2019-01-20T04:56:36.843Z,-9.30
2019-01-20T04:59:24.970Z,-9.30
2019-01-20T05:02:13.258Z,-9.40
2019-01-20T05:05:01.409Z,-9.30
2019-01-20T05:07:49.526Z,-9.40
2019-01-20T05:10:37.580Z,-9.40
2019-01-20T05:13:25.726Z,-9.40
2019-01-20T05:16:13.848Z,-9.50
2019-01-20T05:19:01.983Z,-9.50
2019-01-20T05:21:50.103Z,-9.40
2019-01-20T05:24:38.230Z,-9.40
2019-01-20T05:27:26.283Z,-9.40
2019-01-20T05:30:15.290Z,-9.40
2019-01-20T05:33:03.654Z,-9.40
2019-01-20T05:35:51.702Z,-9.40
2019-01-20T05:38:39.863Z,-9.40
2019-01-20T05:41:28.234Z,-9.40
2019-01-20T05:44:09.077Z,-9.50
2019-01-20T05:46:49.644Z,-9.60
2019-01-20T05:49:28.555Z,-9.50
2019-01-20T05:52:16.667Z,-9.50
2019-01-20T05:55:05.099Z,-9.50
2019-01-20T05:57:53.303Z,-9.60
2019-01-20T06:00:41.445Z,-9.60
2019-01-20T06:03:29.598Z,-9.50
2019-01-20T06:06:17.942Z,-9.50
2019-01-20T06:09:07.254Z,-9.60
2019-01-20T06:11:55.373Z,-9.70
2019-01-20T06:14:43.751Z,-9.60
2019-01-20T06:17:31.866Z,-9.70
2019-01-20T06:20:19.985Z,-9.70
2019-01-20T06:23:08.118Z,-9.70
2019-01-20T06:25:56.151Z,-9.70
2019-01-20T06:28:44.211Z,-9.70
2019-01-20T06:31:32.329Z,-9.70
2019-01-20T06:34:20.698Z,-9.70
2019-01-20T06:37:08.814Z,-9.70
2019-01-20T06:39:57.253Z,-9.70
2019-01-20T06:42:45.377Z,-9.70
2019-01-20T06:45:33.777Z,-9.70
2019-01-20T06:48:21.889Z,-9.70
2019-01-20T06:51:10.039Z,-9.60
2019-01-20T06:53:58.167Z,-9.60
2019-01-20T06:56:46.286Z,-9.50
2019-01-20T06:59:34.661Z,-9.50
2019-01-20T07:02:22.738Z,-9.50
2019-01-20T07:05:11.101Z,-9.50
2019-01-20T07:07:59.231Z,-9.50
2019-01-20T07:10:47.367Z,-9.40
2019-01-20T07:13:35.707Z,-9.40
2019-01-20T07:16:23.798Z,-9.40
2019-01-20T07:19:11.967Z,-9.30
2019-01-20T07:22:00.109Z,-9.10
2019-01-20T07:24:48.473Z,-9.00
2019-01-20T07:27:36.553Z,-8.80
2019-01-20T07:30:24.686Z,-8.70
2019-01-20T07:33:12.817Z,-8.40
2019-01-20T07:36:00.892Z,-8.30
2019-01-20T07:38:49.186Z,-8.10
2019-01-20T07:41:37.338Z,-8.00
2019-01-20T07:44:17.898Z,-7.80
2019-01-20T07:46:56.582Z,-7.60
2019-01-20T07:49:44.722Z,-7.50
2019-01-20T07:52:32.799Z,-7.40
2019-01-20T07:55:20.951Z,-7.20
2019-01-20T07:58:09.086Z,-7.00
2019-01-20T08:00:58.022Z,-6.80
2019-01-20T08:03:46.251Z,-6.70
2019-01-20T08:06:34.408Z,-6.50
2019-01-20T08:09:22.535Z,-6.30
2019-01-20T08:12:10.774Z,-6.10
2019-01-20T08:14:59.007Z,-5.90
2019-01-20T08:17:47.126Z,-5.80
2019-01-20T08:20:35.530Z,-5.70
2019-01-20T08:23:23.574Z,-5.60
2019-01-20T08:26:11.697Z,-5.50
2019-01-20T08:28:59.825Z,-5.40
2019-01-20T08:31:47.957Z,-5.40
2019-01-20T08:34:36.243Z,-5.30
2019-01-20T08:37:28.903Z,-5.30
2019-01-20T08:40:16.160Z,-5.20
2019-01-20T08:43:05.215Z,-5.20
2019-01-20T08:46:12.462Z,-5.40
2019-01-20T08:49:00.852Z,-5.40
2019-01-20T08:51:30.214Z,-5.30
2019-01-20T08:54:18.558Z,-5.30
2019-01-20T08:57:06.715Z,-5.30
2019-01-20T08:59:35.660Z,-5.20
2019-01-20T09:02:23.719Z,-5.10
2019-01-20T09:05:12.304Z,-5.10
2019-01-20T09:08:00.455Z,-5.00
2019-01-20T09:10:48.580Z,-4.90
2019-01-20T09:16:35.168Z,-4.80
2019-01-20T09:19:23.283Z,-4.90
2019-01-20T09:22:11.680Z,-5.00
2019-01-20T09:24:59.793Z,-4.90
2019-01-20T09:27:47.951Z,-4.80
2019-01-20T09:30:36.310Z,-4.70
2019-01-20T09:33:25.001Z,-4.70
2019-01-20T09:36:14.553Z,-4.50
2019-01-20T09:42:04.097Z,-4.40
2019-01-20T09:44:45.102Z,-4.50
2019-01-20T09:47:25.539Z,-4.40
2019-01-20T09:50:06.158Z,-4.20
2019-01-20T09:52:35.565Z,-4.40
2019-01-20T09:55:23.713Z,-4.30
2019-01-20T09:58:11.872Z,-4.40
2019-01-20T10:01:00.041Z,-4.30
2019-01-20T10:03:48.121Z,-4.20
2019-01-20T10:06:36.268Z,-4.20
2019-01-20T10:09:24.368Z,-4.10
2019-01-20T10:12:12.557Z,-4.10
2019-01-20T10:15:00.792Z,-4.10
2019-01-20T10:17:48.922Z,-4.00
2019-01-20T10:20:37.066Z,-4.00
2019-01-20T10:23:25.226Z,-4.00
2019-01-20T10:26:13.343Z,-4.00
2019-01-20T10:29:01.416Z,-3.90
2019-01-20T10:31:49.632Z,-3.80
2019-01-20T10:34:37.957Z,-3.90
2019-01-20T10:40:34.981Z,-3.70
2019-01-20T10:43:14.216Z,-3.90
2019-01-20T10:46:02.673Z,-3.90
2019-01-20T10:48:50.822Z,-3.80
2019-01-20T10:51:38.989Z,-3.70
2019-01-20T10:54:27.252Z,-3.20
2019-01-20T10:57:15.434Z,-2.60
2019-01-20T11:06:19.328Z,-1.80
2019-01-20T11:09:28.003Z,-1.40
2019-01-20T11:12:16.166Z,-0.40
2019-01-20T11:15:05.054Z,-0.10
2019-01-20T11:17:53.182Z,-0.50
2019-01-20T11:20:41.499Z,-0.40
2019-01-20T11:23:29.960Z,-1.20
2019-01-20T11:26:18.113Z,-0.90
2019-01-20T11:32:01.338Z,-0.90
2019-01-20T11:34:49.513Z,-1.30
2019-01-20T11:37:37.654Z,-1.60
2019-01-20T11:40:25.799Z,-1.70
2019-01-20T11:43:14.015Z,-1.80
2019-01-20T11:46:02.154Z,-2.00
2019-01-20T11:48:50.238Z,-2.10
2019-01-20T11:51:38.651Z,-2.20
2019-01-20T11:54:27.248Z,-2.40
2019-01-20T11:57:15.467Z,-2.50
2019-01-20T12:03:18.180Z,-2.60
2019-01-20T12:06:07.502Z,-2.80
2019-01-20T12:08:55.686Z,-2.80
2019-01-20T12:11:43.945Z,-2.90
2019-01-20T12:14:32.415Z,-3.00
2019-01-20T12:17:20.913Z,-3.10
2019-01-20T12:20:09.705Z,-3.00
2019-01-20T12:22:57.998Z,-2.90
2019-01-20T12:25:46.107Z,-3.10
2019-01-20T12:28:34.237Z,-3.10
2019-01-20T12:34:25.027Z,-3.30
2019-01-20T12:40:33.660Z,-3.00
2019-01-20T12:43:21.875Z,-3.20
2019-01-20T12:46:10.130Z,-3.20
2019-01-20T12:48:58.469Z,-3.20
2019-01-20T12:51:46.571Z,-3.30
2019-01-20T12:54:35.123Z,-3.50
2019-01-20T12:57:23.581Z,-3.60
2019-01-20T13:00:13.192Z,-3.50
2019-01-20T13:03:01.399Z,-3.50
2019-01-20T13:05:49.692Z,-3.60
2019-01-20T13:08:38.128Z,-3.30
2019-01-20T13:11:26.507Z,-3.20
2019-01-20T13:14:14.715Z,-3.40
2019-01-20T13:17:05.268Z,-3.30
2019-01-20T13:19:55.437Z,-3.20
2019-01-20T13:22:44.470Z,-3.20
2019-01-20T13:25:32.622Z,-3.30
2019-01-20T13:28:20.754Z,-3.10
2019-01-20T13:31:08.866Z,-3.20
2019-01-20T13:36:44.600Z,-3.30
2019-01-20T13:39:32.846Z,-3.40
2019-01-20T13:42:20.999Z,-3.40
2019-01-20T13:44:59.737Z,-3.50
2019-01-20T13:47:48.870Z,-3.50
2019-01-20T13:50:37.747Z,-3.50
2019-01-20T13:53:26.135Z,-3.50
2019-01-20T13:56:14.503Z,-3.50
2019-01-20T13:59:03.989Z,-3.50
2019-01-20T14:01:52.193Z,-3.50
2019-01-20T14:04:40.370Z,-3.60
2019-01-20T14:10:17.412Z,-3.80
2019-01-20T14:13:05.612Z,-4.00
2019-01-20T14:15:53.721Z,-3.80
2019-01-20T14:18:45.391Z,-3.80
2019-01-20T14:21:31.886Z,-3.80
2019-01-20T14:24:19.938Z,-3.80
2019-01-20T14:27:08.045Z,-3.80
2019-01-20T14:29:56.151Z,-3.80
2019-01-20T14:32:44.282Z,-3.90
2019-01-20T14:35:34.119Z,-3.90
2019-01-20T14:38:22.516Z,-3.90
2019-01-20T14:40:51.439Z,-4.00
2019-01-20T14:43:32.130Z,-4.00
2019-01-20T14:46:13.122Z,-4.10
2019-01-20T14:48:53.742Z,-4.30
2019-01-20T14:51:34.459Z,-4.40
2019-01-20T14:54:15.203Z,-4.30
2019-01-20T14:56:56.035Z,-4.30
2019-01-20T14:59:36.903Z,-4.50
2019-01-20T15:02:17.496Z,-4.50
2019-01-20T15:04:58.310Z,-4.50
2019-01-20T15:07:38.859Z,-4.50
2019-01-20T15:10:19.432Z,-4.60
2019-01-20T15:12:59.791Z,-4.60
2019-01-20T15:15:40.901Z,-4.60
2019-01-20T15:18:21.852Z,-4.60
2019-01-20T15:23:56.296Z,-4.70
2019-01-20T15:26:44.845Z,-4.70
2019-01-20T15:29:33.090Z,-4.80
2019-01-20T15:32:21.481Z,-4.90
2019-01-20T15:35:09.874Z,-5.00
2019-01-20T15:37:58.072Z,-5.10
2019-01-20T15:40:46.553Z,-5.10
2019-01-20T15:43:25.830Z,-5.30
2019-01-20T15:46:14.173Z,-5.30
2019-01-20T15:51:50.659Z,-5.40
2019-01-20T15:54:39.304Z,-5.50
2019-01-20T15:57:27.417Z,-5.50
2019-01-20T16:00:25.500Z,-5.60
2019-01-20T16:03:14.515Z,-5.70
2019-01-20T16:06:03.109Z,-5.70
2019-01-20T16:08:51.228Z,-5.80
2019-01-20T16:11:39.673Z,-5.80
2019-01-20T16:14:28.090Z,-5.90
2019-01-20T16:17:16.230Z,-6.00
2019-01-20T16:23:32.663Z,-6.10
2019-01-20T16:26:23.697Z,-6.20
2019-01-20T16:29:11.833Z,-6.20
2019-01-20T16:32:00.998Z,-6.30
2019-01-20T16:34:49.335Z,-6.40
2019-01-20T16:37:37.960Z,-6.40
2019-01-20T16:40:26.417Z,-6.60
2019-01-20T16:43:14.667Z,-6.60
2019-01-20T16:46:03.513Z,-6.80
2019-01-20T16:48:51.625Z,-6.80
2019-01-20T16:51:39.879Z,-6.80
2019-01-20T16:54:28.259Z,-7.00
2019-01-20T16:57:16.421Z,-7.00
2019-01-20T17:00:05.376Z,-7.00
2019-01-20T17:02:54.015Z,-7.10
2019-01-20T17:05:42.927Z,-7.30
2019-01-20T17:08:31.096Z,-7.20
2019-01-20T17:11:19.273Z,-7.20
2019-01-20T17:14:07.651Z,-7.30
2019-01-20T17:16:55.853Z,-7.50
2019-01-20T17:19:43.938Z,-7.40
2019-01-20T17:22:32.077Z,-7.50
2019-01-20T17:25:20.214Z,-7.40
2019-01-20T17:28:08.372Z,-7.50
2019-01-20T17:30:56.525Z,-7.50
2019-01-20T17:33:44.729Z,-7.50
2019-01-20T17:36:32.999Z,-7.60
2019-01-20T17:39:21.380Z,-7.60
2019-01-20T17:42:09.541Z,-7.60
2019-01-20T17:44:48.450Z,-7.70
2019-01-20T17:47:36.591Z,-7.80
2019-01-20T17:50:26.156Z,-7.70
2019-01-20T17:52:55.353Z,-7.80
2019-01-20T17:55:43.488Z,-7.20
2019-01-20T17:58:31.646Z,-7.80
2019-01-20T18:01:19.774Z,-7.80
2019-01-20T18:04:07.913Z,-7.90
2019-01-20T18:06:56.328Z,-7.90
2019-01-20T18:09:44.486Z,-7.90
2019-01-20T18:12:32.608Z,-8.00
2019-01-20T18:15:21.033Z,-8.00
2019-01-20T18:18:09.178Z,-7.50
2019-01-20T18:20:57.306Z,-8.10
2019-01-20T18:23:45.442Z,-8.10
2019-01-20T18:26:33.741Z,-8.10
2019-01-20T18:29:21.890Z,-8.20
2019-01-20T18:32:10.317Z,-8.20
2019-01-20T18:34:58.697Z,-8.20
2019-01-20T18:37:46.850Z,-8.30
2019-01-20T18:40:34.985Z,-8.20
2019-01-20T18:43:23.117Z,-8.20
2019-01-20T18:46:11.485Z,-8.20
2019-01-20T18:48:59.616Z,-8.20
2019-01-20T18:51:47.738Z,-8.30
2019-01-20T18:54:35.897Z,-8.40
2019-01-20T18:57:24.024Z,-8.30
2019-01-20T19:00:31.288Z,-8.30
2019-01-20T19:03:19.672Z,-8.40
2019-01-20T19:06:08.095Z,-8.40
2019-01-20T19:08:56.243Z,-8.40
2019-01-20T19:11:44.366Z,-8.50
2019-01-20T19:14:32.511Z,-8.50
2019-01-20T19:17:20.573Z,-8.50
2019-01-20T19:20:09.737Z,-8.50
2019-01-20T19:22:57.877Z,-8.40
2019-01-20T19:25:46.029Z,-8.30
2019-01-20T19:28:34.085Z,-8.10
2019-01-20T19:31:22.469Z,-7.90
2019-01-20T19:34:10.600Z,-7.80
2019-01-20T19:36:58.738Z,-7.60
2019-01-20T19:39:50.627Z,-7.40
2019-01-20T19:42:36.662Z,-7.30
2019-01-20T19:45:16.181Z,-7.20
2019-01-20T19:48:04.418Z,-7.10
2019-01-20T19:50:52.552Z,-7.00
2019-01-20T19:53:40.714Z,-7.00
2019-01-20T19:56:28.862Z,-6.90
2019-01-20T19:59:16.919Z,-6.80
2019-01-20T20:02:05.276Z,-6.70
2019-01-20T20:04:53.446Z,-6.70
2019-01-20T20:07:41.588Z,-6.60
2019-01-20T20:10:29.730Z,-6.60
2019-01-20T20:13:18.099Z,-6.50
2019-01-20T20:16:06.325Z,-6.40
2019-01-20T20:18:54.487Z,-6.50
2019-01-20T20:21:42.861Z,-6.30
2019-01-20T20:24:31.009Z,-6.40
2019-01-20T20:27:19.104Z,-6.20
2019-01-20T20:30:09.761Z,-6.20
2019-01-20T20:32:57.930Z,-6.10
2019-01-20T20:35:46.094Z,-6.10
2019-01-20T20:38:34.189Z,-6.10
2019-01-20T20:41:22.266Z,-6.10
2019-01-20T20:44:03.533Z,-6.10
2019-01-20T20:46:44.033Z,-6.00
2019-01-20T20:49:22.841Z,-6.00
2019-01-20T20:52:11.004Z,-6.00
2019-01-20T20:54:59.141Z,-6.10
2019-01-20T20:57:47.284Z,-6.00
2019-01-20T21:00:45.685Z,-6.00
2019-01-20T21:03:35.124Z,-6.10
2019-01-20T21:06:23.269Z,-6.10
2019-01-20T21:09:11.389Z,-6.10
2019-01-20T21:11:59.785Z,-6.00
2019-01-20T21:14:47.955Z,-6.00
2019-01-20T21:17:36.088Z,-6.00
2019-01-20T21:20:24.228Z,-5.90
2019-01-20T21:23:12.615Z,-5.90
2019-01-20T21:26:02.200Z,-5.90
2019-01-20T21:28:50.286Z,-5.90
2019-01-20T21:31:38.776Z,-5.90
2019-01-20T21:34:27.081Z,-5.90
2019-01-20T21:37:15.150Z,-5.80
2019-01-20T21:40:03.277Z,-5.80
2019-01-20T21:42:32.295Z,-5.80
2019-01-20T21:45:12.759Z,-5.70
2019-01-20T21:47:51.397Z,-5.80
2019-01-20T21:50:39.449Z,-5.70
2019-01-20T21:53:27.581Z,-5.80
2019-01-20T21:55:56.509Z,-5.60
2019-01-20T21:58:44.881Z,-5.60
2019-01-20T22:01:33.016Z,-5.50
2019-01-20T22:04:21.094Z,-5.60
2019-01-20T22:07:09.251Z,-5.50
2019-01-20T22:09:57.321Z,-5.50
2019-01-20T22:12:45.465Z,-5.50
2019-01-20T22:15:33.516Z,-5.50
2019-01-20T22:18:21.933Z,-5.40
2019-01-20T22:21:10.090Z,-5.40
2019-01-20T22:23:58.162Z,-5.40
2019-01-20T22:26:46.301Z,-5.40
2019-01-20T22:29:34.466Z,-5.40
2019-01-20T22:32:22.866Z,-5.40
2019-01-20T22:35:11.118Z,-5.40
2019-01-20T22:37:59.178Z,-5.30
2019-01-20T22:40:47.313Z,-5.30
2019-01-20T22:43:42.617Z,-5.30
2019-01-20T22:46:30.809Z,-5.20
2019-01-20T22:49:18.873Z,-5.20
2019-01-20T22:52:07.238Z,-5.30
2019-01-20T22:54:55.379Z,-5.20
2019-01-20T22:57:43.585Z,-5.20
2019-01-20T23:03:47.666Z,-5.20
2019-01-20T23:06:35.796Z,-5.20
2019-01-20T23:09:23.854Z,-5.20
2019-01-20T23:12:11.993Z,-5.10
2019-01-20T23:15:00.227Z,-5.10
2019-01-20T23:17:48.369Z,-5.20
2019-01-20T23:20:36.554Z,-5.20
2019-01-20T23:23:24.684Z,-5.20
2019-01-20T23:26:12.758Z,-5.20
2019-01-20T23:29:00.897Z,-5.10
2019-01-20T23:31:49.254Z,-5.20
2019-01-20T23:34:37.334Z,-5.20
2019-01-20T23:37:25.389Z,-5.10
2019-01-20T23:40:13.782Z,-5.20
2019-01-20T23:43:01.914Z,-5.20
2019-01-20T23:45:41.046Z,-5.20
2019-01-20T23:48:29.402Z,-5.30
2019-01-20T23:51:17.873Z,-5.20
2019-01-20T23:54:06.037Z,-5.30
2019-01-20T23:56:54.157Z,-5.30
2019-01-20T23:59:42.293Z,-5.30
